Time;durP1;ratioP1;P1;durP2;ratioP2;P2;SDS_P1;SDS_P2;PMS_P1;PMS_P2;Temp;Humidity;BMP_temperature;BMP_pressure;BME280_temperature;BME280_humidity;BME280_pressure;Samples;Min_cycle;Max_cycle;Signal;HPM_P1;HPM_P2
2021/12/12 00:02:29;;;;;;;0.40;0.30;;;;;;;0.93;99.35;101633.72;5056492;28;20460;-79
2021/12/12 00:04:58;;;;;;;0.40;0.30;;;;;;;0.95;99.10;101634.34;5058886;28;20556;-80
2021/12/12 00:07:29;;;;;;;0.40;0.30;;;;;;;0.94;98.66;101646.03;5058821;28;20468;-80
2021/12/12 00:10:03;;;;;;;3.03;2.40;;;;;;;0.95;99.27;101637.00;5058383;28;20858;-80
2021/12/12 00:12:36;;;;;;;0.40;0.30;;;;;;;1.00;99.38;101638.00;5057718;28;20448;-80
2021/12/12 00:15:05;;;;;;;0.40;0.30;;;;;;;1.07;99.20;101640.66;5057984;28;20441;-80
2021/12/12 00:17:32;;;;;;;1.00;1.00;;;;;;;1.08;99.32;101647.63;5057392;28;20464;-80
2021/12/12 00:19:59;;;;;;;0.40;0.30;;;;;;;1.11;98.66;101655.22;5057025;28;20466;-81
2021/12/12 00:22:30;;;;;;;0.50;0.50;;;;;;;1.09;97.85;101653.78;5057796;28;20450;-80
2021/12/12 00:24:59;;;;;;;0.40;0.30;;;;;;;1.04;98.60;101659.75;5057016;28;20971;-81
2021/12/12 00:27:25;;;;;;;0.40;0.30;;;;;;;1.09;98.36;101661.78;5057685;28;20446;-80
2021/12/12 00:29:52;;;;;;;0.50;0.50;;;;;;;1.09;98.15;101673.25;5057019;28;20465;-80
2021/12/12 00:32:22;;;;;;;0.40;0.30;;;;;;;1.13;98.11;101677.16;5057659;28;20943;-81
2021/12/12 00:34:53;;;;;;;0.40;0.30;;;;;;;1.11;98.12;101679.22;5057879;28;20442;-80
2021/12/12 00:37:20;;;;;;;0.40;0.30;;;;;;;1.07;98.33;101688.66;5057289;28;20465;-80
2021/12/12 00:39:52;;;;;;;0.40;0.30;;;;;;;1.09;98.17;101697.28;5057136;28;20557;-80
2021/12/12 00:42:22;;;;;;;0.40;0.30;;;;;;;1.14;97.75;101699.31;5057097;28;20464;-80
2021/12/12 00:44:52;;;;;;;0.40;0.30;;;;;;;1.18;97.63;101701.34;5057339;28;20486;-80
2021/12/12 00:47:19;;;;;;;0.40;0.30;;;;;;;1.16;97.46;101699.94;5057157;28;20439;-80
2021/12/12 00:49:46;;;;;;;0.40;0.30;;;;;;;1.15;97.12;101701.78;5057044;28;20833;-80
2021/12/12 00:52:15;;;;;;;0.40;0.30;;;;;;;1.15;97.50;101691.09;5057272;28;20805;-80
2021/12/12 00:54:43;;;;;;;0.97;0.97;;;;;;;1.11;98.04;101689.88;5057308;28;20943;-80
2021/12/12 00:57:13;;;;;;;0.40;0.30;;;;;;;1.11;98.21;101687.22;5056811;28;20458;-80
2021/12/12 00:59:44;;;;;;;0.40;0.30;;;;;;;1.11;98.06;101692.56;5057783;28;20469;-81
2021/12/12 01:02:15;;;;;;;0.40;0.30;;;;;;;1.09;97.55;101683.94;5057628;28;20431;-80
2021/12/12 01:04:46;;;;;;;1.23;1.13;;;;;;;1.02;97.32;101693.81;5057290;28;20466;-80
2021/12/12 01:07:18;;;;;;;0.40;0.30;;;;;;;1.02;97.53;101696.50;5058024;28;20427;-81
2021/12/12 01:09:49;;;;;;;0.40;0.30;;;;;;;0.98;97.25;101695.28;5058890;28;20481;-79
2021/12/12 01:12:20;;;;;;;0.40;0.27;;;;;;;0.92;97.86;101696.09;5058129;28;20931;-79
2021/12/12 01:14:52;;;;;;;0.40;0.30;;;;;;;0.88;97.39;101694.88;5058576;28;20457;-79
2021/12/12 01:17:25;;;;;;;0.40;0.30;;;;;;;0.86;96.53;101695.09;5058344;28;20430;-80
2021/12/12 01:19:57;;;;;;;0.40;0.30;;;;;;;0.79;96.46;101701.44;5056803;28;21010;-80
2021/12/12 01:22:29;;;;;;;0.40;0.30;;;;;;;0.80;96.41;101711.09;5057182;28;20805;-81
2021/12/12 01:24:57;;;;;;;2.00;1.90;;;;;;;0.86;96.55;101707.59;5057272;28;20474;-81
2021/12/12 01:27:25;;;;;;;0.40;0.30;;;;;;;0.89;95.93;101707.19;5057119;28;20442;-80
2021/12/12 01:29:53;;;;;;;10.13;9.00;;;;;;;0.92;96.29;101702.25;5057539;28;20466;-80
2021/12/12 01:32:27;;;;;;;0.40;0.30;;;;;;;0.88;96.14;101694.88;5057571;28;20457;-80
2021/12/12 01:34:56;;;;;;;0.40;0.30;;;;;;;0.87;96.11;101693.22;5057302;28;20521;-79
2021/12/12 01:37:37;;;;;;;0.40;0.30;;;;;;;0.92;96.24;101696.09;5057589;28;20514;-79
2021/12/12 01:40:09;;;;;;;0.40;0.30;;;;;;;0.89;95.92;101697.34;5057015;28;20462;-80
2021/12/12 01:42:40;;;;;;;0.40;0.30;;;;;;;0.93;96.15;101700.38;5057428;28;20438;-79
2021/12/12 01:45:12;;;;;;;0.40;0.30;;;;;;;0.82;95.78;101707.19;5057210;28;20566;-79
2021/12/12 01:47:43;;;;;;;0.40;0.30;;;;;;;0.79;96.44;101710.25;5057632;28;20433;-79
2021/12/12 01:50:14;;;;;;;0.40;0.30;;;;;;;0.80;96.10;101713.75;5056578;28;20489;-79
2021/12/12 01:52:42;;;;;;;0.40;0.30;;;;;;;0.78;96.20;101715.81;5057104;28;20445;-79
2021/12/12 01:55:18;;;;;;;0.40;0.30;;;;;;;0.85;96.06;101708.63;5057051;28;21037;-79
2021/12/12 01:57:44;;;;;;;0.40;0.30;;;;;;;0.77;95.87;101704.34;5057524;28;20446;-79
2021/12/12 02:00:18;;;;;;;0.40;0.30;;;;;;;0.69;95.99;101708.03;5057018;28;20474;-79
2021/12/12 02:02:45;;;;;;;0.40;0.30;;;;;;;0.66;96.32;101696.97;5057149;28;20435;-79
2021/12/12 02:05:15;;;;;;;0.40;0.30;;;;;;;0.63;96.61;101710.72;5056472;28;20842;-79
2021/12/12 02:07:44;;;;;;;0.40;0.30;;;;;;;0.57;96.46;101704.34;5056935;28;20447;-79
2021/12/12 02:10:14;;;;;;;0.40;0.30;;;;;;;0.64;96.23;101705.16;5056880;28;20473;-79
2021/12/12 02:12:41;;;;;;;0.40;0.30;;;;;;;0.59;97.01;101696.97;5056975;28;20449;-79
2021/12/12 02:15:09;;;;;;;0.40;0.30;;;;;;;0.66;96.91;101696.97;5057119;28;20439;-79
2021/12/12 02:17:41;;;;;;;0.40;0.30;;;;;;;0.64;97.30;101694.50;5056883;28;20961;-79
2021/12/12 02:20:18;;;;;;;0.40;0.30;;;;;;;0.60;96.51;101708.47;5057565;28;20963;-79
2021/12/12 02:23:01;;;;;;;0.40;0.30;;;;;;;0.53;97.28;101708.47;5057309;28;20939;-79
2021/12/12 02:36:32;;;;;;;1.80;1.70;;;;;;;0.43;96.98;101716.06;5056652;28;20437;-79
2021/12/12 02:39:02;;;;;;;0.40;0.30;;;;;;;0.37;97.58;101708.91;5056765;28;20470;-79
2021/12/12 02:41:28;;;;;;;0.40;0.30;;;;;;;0.38;97.18;101721.19;5056848;28;20944;-79
2021/12/12 02:43:58;;;;;;;0.60;0.60;;;;;;;0.35;97.37;101721.59;5056962;28;20454;-80
2021/12/12 02:46:28;;;;;;;0.40;0.30;;;;;;;0.34;97.18;101720.78;5057080;28;20489;-79
2021/12/12 02:49:05;;;;;;;0.40;0.30;;;;;;;0.36;97.66;101724.06;5057300;28;20467;-79
2021/12/12 02:51:32;;;;;;;0.40;0.30;;;;;;;0.42;97.72;101728.56;5056984;28;20485;-79
2021/12/12 02:54:01;;;;;;;0.40;0.30;;;;;;;0.40;97.60;101729.78;5057108;28;20450;-79
2021/12/12 02:56:32;;;;;;;0.40;0.30;;;;;;;0.36;98.19;101732.06;5055929;28;20446;-80
2021/12/12 02:59:00;;;;;;;0.40;0.30;;;;;;;0.39;98.49;101733.47;5056822;28;20482;-78
2021/12/12 03:01:31;;;;;;;0.40;0.30;;;;;;;0.38;98.46;101737.19;5057816;28;20454;-79
2021/12/12 03:03:57;;;;;;;0.40;0.30;;;;;;;0.36;98.70;101733.91;5057078;28;20435;-79
2021/12/12 03:06:27;;;;;;;9.03;8.50;;;;;;;0.38;98.47;101729.19;5056818;28;20486;-79
2021/12/12 03:09:00;;;;;;;0.40;0.30;;;;;;;0.30;99.28;101732.84;5056773;28;20478;-79
2021/12/12 03:11:28;;;;;;;0.40;0.30;;;;;;;0.37;99.40;101730.22;5056382;28;20943;-79
2021/12/12 03:13:55;;;;;;;0.40;0.30;;;;;;;0.32;99.53;101738.00;5056545;28;20982;-79
2021/12/12 03:16:22;;;;;;;13.33;12.37;;;;;;;0.33;99.22;101739.63;5057119;28;20848;-78
2021/12/12 03:18:49;;;;;;;0.40;0.30;;;;;;;0.35;98.81;101740.25;5056029;28;21005;-78
2021/12/12 03:21:28;;;;;;;6.97;5.00;;;;;;;0.29;97.94;101749.06;5056878;28;20437;-78
2021/12/12 03:23:56;;;;;;;0.50;0.50;;;;;;;0.37;98.00;101752.34;5057010;28;20870;-79
2021/12/12 03:26:24;;;;;;;0.40;0.30;;;;;;;0.43;97.94;101756.03;5056412;28;20478;-79
2021/12/12 03:28:55;;;;;;;0.40;0.30;;;;;;;0.39;97.71;101746.81;5057116;28;20462;-79
2021/12/12 03:31:24;;;;;;;0.40;0.30;;;;;;;0.40;97.32;101740.44;5056633;28;20533;-79
2021/12/12 03:33:51;;;;;;;0.40;0.30;;;;;;;0.50;97.50;101738.22;5056422;28;20449;-79
2021/12/12 03:36:18;;;;;;;0.40;0.30;;;;;;;0.53;96.76;101744.94;5056125;28;20446;-79
2021/12/12 03:38:51;;;;;;;0.40;0.30;;;;;;;0.48;97.18;101742.91;5059699;28;20857;-79
2021/12/12 03:41:21;;;;;;;0.50;0.30;;;;;;;0.42;96.74;101749.06;5059965;28;20813;-79
2021/12/12 03:43:53;;;;;;;0.40;0.30;;;;;;;0.37;97.10;101755.00;5060230;28;20446;-79
2021/12/12 03:46:20;;;;;;;0.40;0.30;;;;;;;0.44;96.81;101749.66;5060068;28;20477;-79
2021/12/12 03:48:47;;;;;;;0.50;0.40;;;;;;;0.50;97.16;101751.53;5060022;28;21019;-79
2021/12/12 03:51:16;;;;;;;0.40;0.27;;;;;;;0.47;96.87;101757.25;5059818;28;20446;-79
2021/12/12 03:53:43;;;;;;;0.40;0.30;;;;;;;0.48;97.09;101759.72;5059923;28;20441;-79
2021/12/12 03:56:12;;;;;;;0.50;0.50;;;;;;;0.50;97.45;101757.69;5059765;28;20448;-79
2021/12/12 03:58:39;;;;;;;0.40;0.30;;;;;;;0.54;97.51;101760.75;5059614;28;20462;-79
2021/12/12 04:01:11;;;;;;;0.40;0.30;;;;;;;0.56;97.92;101772.03;5063271;28;20442;-78
2021/12/12 04:03:39;;;;;;;0.40;0.30;;;;;;;0.61;98.34;101769.56;5065857;28;20478;-79
2021/12/12 04:06:09;;;;;;;0.40;0.30;;;;;;;0.69;98.47;101765.88;5065708;28;20836;-79
2021/12/12 04:08:39;;;;;;;0.40;0.30;;;;;;;0.65;97.86;101776.13;5064881;28;20508;-78
2021/12/12 04:11:12;;;;;;;0.40;0.30;;;;;;;0.63;97.70;101772.84;5065927;28;20450;-79
2021/12/12 04:13:40;;;;;;;0.40;0.30;;;;;;;0.68;97.88;101778.38;5065547;28;20443;-78
2021/12/12 04:16:08;;;;;;;1.03;1.03;;;;;;;0.71;97.84;101778.00;5065207;28;20465;-79
2021/12/12 04:18:35;;;;;;;0.40;0.30;;;;;;;0.78;97.91;101775.28;5064977;28;20826;-78
2021/12/12 04:21:02;;;;;;;0.40;0.30;;;;;;;0.80;98.10;101780.41;5066631;28;20450;-79
2021/12/12 04:23:29;;;;;;;1.23;1.13;;;;;;;0.78;98.85;101785.97;5059227;28;20437;-80
2021/12/12 04:26:07;;;;;;;0.40;0.30;;;;;;;0.89;98.73;101782.69;5057454;28;20481;-80
2021/12/12 04:28:34;;;;;;;0.60;0.60;;;;;;;0.95;98.82;101776.50;5057616;28;20476;-80
2021/12/12 04:31:00;;;;;;;0.40;0.40;;;;;;;0.97;98.24;101789.63;5057622;28;20442;-81
2021/12/12 04:33:28;;;;;;;0.40;0.30;;;;;;;0.99;98.25;101795.59;5057933;28;20449;-81
2021/12/12 04:35:55;;;;;;;0.40;0.30;;;;;;;0.98;98.26;101796.63;5058513;28;20446;-80
2021/12/12 04:38:21;;;;;;;0.60;0.50;;;;;;;1.01;98.14;101793.53;5057761;28;20445;-80
2021/12/12 04:40:48;;;;;;;0.40;0.30;;;;;;;1.10;98.32;101788.78;5058002;28;20453;-81
2021/12/12 04:43:14;;;;;;;0.40;0.30;;;;;;;1.18;98.41;101789.38;5058364;28;20472;-80
2021/12/12 04:46:04;;;;;;;0.40;0.30;;;;;;;1.24;97.83;101795.75;5057780;28;21079;-80
2021/12/12 04:51:30;;;;;;;0.40;0.30;;;;;;;1.23;96.92;101786.09;5058253;28;20430;-81
2021/12/12 04:54:07;;;;;;;0.40;0.30;;;;;;;1.23;96.91;101781.56;5058109;28;20447;-80
2021/12/12 04:56:40;;;;;;;0.40;0.30;;;;;;;1.26;96.98;101793.69;5057784;28;20903;-80
2021/12/12 04:59:16;;;;;;;0.40;0.30;;;;;;;1.28;97.34;101791.63;5058115;28;20477;-81
2021/12/12 05:01:49;;;;;;;0.40;0.30;;;;;;;1.30;97.51;101784.25;5058077;28;20810;-80
2021/12/12 05:04:23;;;;;;;0.40;0.30;;;;;;;1.34;97.22;101787.31;5057811;28;20434;-80
2021/12/12 05:06:56;;;;;;;0.40;0.30;;;;;;;1.35;97.42;101796.97;5059493;28;20847;-79
2021/12/12 05:09:28;;;;;;;0.40;0.20;;;;;;;1.39;96.93;101796.31;5060897;28;20482;-79
2021/12/12 05:12:00;;;;;;;0.40;0.30;;;;;;;1.45;97.03;101786.66;5060772;28;20438;-79
2021/12/12 05:14:31;;;;;;;0.40;0.30;;;;;;;1.35;97.15;101780.94;5063045;28;20423;-79
2021/12/12 05:17:04;;;;;;;0.40;0.30;;;;;;;1.38;97.02;101791.22;5063908;28;20431;-79
2021/12/12 05:19:33;;;;;;;0.40;0.30;;;;;;;1.42;97.12;101792.44;5064743;28;20467;-79
2021/12/12 05:22:06;;;;;;;0.40;0.30;;;;;;;1.41;96.99;101796.91;5064990;28;20476;-79
2021/12/12 05:24:36;;;;;;;0.40;0.30;;;;;;;1.42;96.67;101798.59;5064477;28;20434;-80
2021/12/12 05:27:07;;;;;;;0.40;0.30;;;;;;;1.44;96.98;101791.16;5065550;28;20482;-79
2021/12/12 05:29:38;;;;;;;0.40;0.20;;;;;;;1.21;96.61;101790.84;5064182;28;20470;-80
2021/12/12 05:32:09;;;;;;;0.40;0.30;;;;;;;1.27;97.03;101803.34;5065260;28;20431;-79
2021/12/12 05:34:40;;;;;;;0.40;0.30;;;;;;;1.31;97.13;101795.72;5064468;28;20426;-79
2021/12/12 05:37:10;;;;;;;0.40;0.30;;;;;;;1.27;97.08;101806.81;5064171;28;20900;-79
2021/12/12 05:39:37;;;;;;;0.40;0.30;;;;;;;1.23;97.05;101808.25;5063628;28;20470;-79
2021/12/12 05:42:04;;;;;;;0.40;0.30;;;;;;;1.17;97.08;101811.78;5063263;28;20446;-79
2021/12/12 05:44:32;;;;;;;1.40;1.37;;;;;;;1.11;96.64;101811.81;5063420;28;20453;-79
2021/12/12 05:47:01;;;;;;;0.40;0.30;;;;;;;1.03;96.64;101804.00;5063916;28;20489;-79
2021/12/12 05:49:28;;;;;;;0.40;0.30;;;;;;;1.00;96.60;101815.91;5062963;28;21006;-79
2021/12/12 05:51:56;;;;;;;0.40;0.30;;;;;;;0.98;96.54;101816.13;5064913;28;20443;-79
2021/12/12 05:54:24;;;;;;;0.50;0.50;;;;;;;0.94;96.38;101812.22;5064340;28;20450;-79
2021/12/12 05:56:51;;;;;;;0.40;0.30;;;;;;;0.94;96.38;101812.22;5064330;28;20951;-79
2021/12/12 05:59:18;;;;;;;0.40;0.30;;;;;;;0.92;96.77;101808.09;5063826;28;20516;-78
2021/12/12 06:01:45;;;;;;;0.40;0.30;;;;;;;0.88;96.67;101810.34;5063217;28;20446;-79
2021/12/12 06:04:12;;;;;;;0.40;0.30;;;;;;;0.88;97.01;101806.88;5064509;28;20442;-79
2021/12/12 06:06:41;;;;;;;0.40;0.30;;;;;;;0.81;97.58;101806.06;5064303;28;21022;-79
2021/12/12 06:09:12;;;;;;;0.40;0.30;;;;;;;0.85;97.14;101801.97;5063377;28;20474;-79
2021/12/12 06:11:42;;;;;;;0.40;0.40;;;;;;;0.95;97.06;101791.69;5063285;28;20817;-79
2021/12/12 06:14:10;;;;;;;0.40;0.30;;;;;;;0.99;97.90;101804.41;5065215;28;20431;-79
2021/12/12 06:16:38;;;;;;;0.40;0.30;;;;;;;0.97;98.39;101794.97;5062873;28;20435;-79
2021/12/12 06:19:08;;;;;;;0.40;0.30;;;;;;;1.04;98.59;101801.13;5063660;28;20458;-79
2021/12/12 06:21:35;;;;;;;0.40;0.30;;;;;;;1.00;98.98;101799.91;5063494;28;20437;-80
2021/12/12 06:24:03;;;;;;;0.40;0.30;;;;;;;1.08;98.77;101793.53;5062757;28;20453;-79
2021/12/12 06:26:31;;;;;;;0.40;0.30;;;;;;;1.05;99.15;101794.75;5062700;28;20479;-79
2021/12/12 06:28:58;;;;;;;0.40;0.30;;;;;;;1.08;99.20;101799.69;5063327;28;20470;-80
2021/12/12 06:31:25;;;;;;;0.40;0.30;;;;;;;1.17;99.24;101805.63;5062657;28;20450;-79
2021/12/12 06:33:52;;;;;;;0.40;0.30;;;;;;;1.16;99.36;101798.66;5062235;28;20943;-80
2021/12/12 06:36:19;;;;;;;0.40;0.30;;;;;;;1.24;99.05;101796.59;5062959;28;20843;-80
2021/12/12 06:38:48;;;;;;;0.40;0.30;;;;;;;1.27;98.84;101804.16;5063095;28;20470;-79
2021/12/12 06:41:15;;;;;;;2.23;2.13;;;;;;;1.34;98.66;101812.16;5063071;28;20445;-79
2021/12/12 06:43:44;;;;;;;2.50;2.40;;;;;;;1.35;98.56;101810.31;5062353;28;20449;-79
2021/12/12 06:46:12;;;;;;;1.50;1.43;;;;;;;1.25;97.15;101803.56;5063063;28;20494;-80
2021/12/12 06:48:39;;;;;;;0.40;0.30;;;;;;;1.18;97.16;101794.72;5063668;28;20470;-79
2021/12/12 06:51:06;;;;;;;0.87;0.87;;;;;;;1.17;96.89;101794.94;5063876;28;20453;-80
2021/12/12 06:53:36;;;;;;;0.40;0.30;;;;;;;1.16;96.40;101796.81;5063877;28;20453;-81
2021/12/12 06:56:03;;;;;;;0.40;0.30;;;;;;;1.17;96.14;101798.44;5063531;28;20445;-80
2021/12/12 06:58:34;;;;;;;0.40;0.30;;;;;;;1.16;96.50;101795.97;5063601;28;20485;-80
2021/12/12 07:01:05;;;;;;;0.40;0.30;;;;;;;1.20;96.40;101795.34;5059752;28;20924;-79
2021/12/12 07:03:33;;;;;;;0.40;0.30;;;;;;;1.25;96.80;101802.72;5057803;28;20917;-80
2021/12/12 07:06:01;;;;;;;0.40;0.30;;;;;;;1.19;96.70;101811.56;5051773;28;20455;-80
2021/12/12 07:08:27;;;;;;;0.40;0.30;;;;;;;1.22;96.59;101797.81;5035384;28;20482;-80
2021/12/12 07:10:54;;;;;;;0.40;0.20;;;;;;;1.19;96.71;101804.38;5040324;28;20439;-80
2021/12/12 07:13:21;;;;;;;0.40;0.27;;;;;;;1.25;96.75;101816.91;5055323;28;20450;-81
2021/12/12 07:15:50;;;;;;;0.40;0.30;;;;;;;1.19;96.59;101815.03;5055418;28;20446;-80
2021/12/12 07:18:21;;;;;;;0.40;0.30;;;;;;;1.20;96.68;101829.22;5055052;28;20457;-80
2021/12/12 07:20:49;;;;;;;0.40;0.30;;;;;;;1.24;97.39;101828.59;5054925;28;20438;-80
2021/12/12 07:23:17;;;;;;;0.40;0.30;;;;;;;1.21;97.06;101823.69;5055124;28;20445;-80
2021/12/12 07:25:45;;;;;;;0.40;0.30;;;;;;;1.24;97.21;101822.44;5055819;28;20442;-81
2021/12/12 07:28:12;;;;;;;0.40;0.30;;;;;;;1.19;96.98;101820.38;5055273;28;20474;-81
2021/12/12 07:30:40;;;;;;;0.40;0.30;;;;;;;1.19;97.11;101819.56;5055329;28;20446;-80
2021/12/12 07:33:07;;;;;;;0.40;0.23;;;;;;;1.18;96.71;101817.94;5055813;28;20453;-80
2021/12/12 07:35:40;;;;;;;1.13;1.03;;;;;;;1.16;96.77;101825.34;5055347;28;20449;-80
2021/12/12 07:38:09;;;;;;;0.40;0.30;;;;;;;1.19;96.73;101825.72;5055074;28;20450;-81
2021/12/12 07:40:36;;;;;;;0.40;0.30;;;;;;;1.24;96.52;101831.28;5055497;28;20932;-81
2021/12/12 07:43:03;;;;;;;1.60;1.50;;;;;;;1.28;96.65;101834.31;5055784;28;20442;-81
2021/12/12 07:45:30;;;;;;;0.87;0.80;;;;;;;1.31;96.98;101838.44;5056461;28;20932;-81
2021/12/12 07:47:56;;;;;;;0.40;0.30;;;;;;;1.30;97.24;101839.47;5055902;28;20477;-81
2021/12/12 07:50:27;;;;;;;0.40;0.30;;;;;;;1.27;96.90;101836.16;5055200;28;20469;-80
2021/12/12 07:52:55;;;;;;;0.40;0.30;;;;;;;1.22;95.93;101846.66;5055368;28;20449;-81
2021/12/12 07:55:23;;;;;;;0.40;0.30;;;;;;;1.21;96.60;101830.88;5055121;28;20450;-81
2021/12/12 07:57:51;;;;;;;0.40;0.30;;;;;;;1.26;96.78;101833.72;5055730;28;20443;-81
2021/12/12 08:00:22;;;;;;;0.40;0.30;;;;;;;1.22;96.51;101830.66;5038357;28;20475;-81
2021/12/12 08:02:49;;;;;;;0.40;0.30;;;;;;;1.18;97.12;101828.59;5048974;28;20445;-82
2021/12/12 08:05:18;;;;;;;0.40;0.30;;;;;;;1.23;97.25;101826.13;5053962;28;20446;-79
2021/12/12 08:07:45;;;;;;;0.50;0.30;;;;;;;1.28;97.20;101834.31;5053725;28;20482;-80
2021/12/12 08:10:17;;;;;;;0.40;0.30;;;;;;;1.25;96.99;101829.41;5053469;28;20482;-79
2021/12/12 08:12:44;;;;;;;0.40;0.37;;;;;;;1.23;97.14;101828.78;5054202;28;20438;-79
2021/12/12 08:15:13;;;;;;;37.17;17.50;;;;;;;1.31;96.92;101827.75;5054181;28;20454;-79
2021/12/12 08:17:42;;;;;;;0.40;0.30;;;;;;;1.40;97.29;101835.34;5054161;28;20453;-80
2021/12/12 08:20:10;;;;;;;0.40;0.30;;;;;;;1.40;96.45;101823.84;5037981;28;20635;-81
2021/12/12 08:22:38;;;;;;;0.40;0.30;;;;;;;1.45;96.35;101824.03;5035038;28;20454;-81
2021/12/12 08:25:08;;;;;;;0.40;0.30;;;;;;;1.39;97.31;101819.53;5036962;28;20450;-80
2021/12/12 08:27:36;;;;;;;0.40;0.30;;;;;;;1.54;97.25;101822.75;5052812;28;20470;-80
2021/12/12 08:30:04;;;;;;;0.40;0.30;;;;;;;1.59;97.66;101816.78;5058635;28;20469;-80
2021/12/12 08:32:33;;;;;;;0.40;0.30;;;;;;;1.65;97.35;101816.78;5058577;28;20445;-80
2021/12/12 08:35:00;;;;;;;0.40;0.40;;;;;;;1.62;97.43;101819.88;5058653;28;20446;-80
2021/12/12 08:37:27;;;;;;;0.40;0.30;;;;;;;1.68;97.17;101819.03;5067072;28;20449;-80
2021/12/12 08:39:55;;;;;;;1.33;1.20;;;;;;;1.75;97.06;101814.47;5066706;28;20878;-80
2021/12/12 08:42:26;;;;;;;0.40;0.30;;;;;;;1.85;96.76;101815.88;5067064;28;20948;-80
2021/12/12 08:44:55;;;;;;;0.97;0.53;;;;;;;1.89;96.44;101804.53;5065955;28;20472;-80
2021/12/12 08:47:22;;;;;;;0.40;0.30;;;;;;;1.89;96.59;101815.22;5066170;28;20481;-80
2021/12/12 08:49:49;;;;;;;0.40;0.30;;;;;;;1.84;97.36;101817.72;5065811;28;20470;-80
2021/12/12 08:52:20;;;;;;;0.50;0.50;;;;;;;1.98;97.00;101815.81;5063386;28;20438;-80
2021/12/12 08:54:50;;;;;;;0.40;0.30;;;;;;;2.05;96.84;101802.44;5063235;28;20438;-81
2021/12/12 08:57:31;;;;;;;0.40;0.30;;;;;;;2.14;96.75;101806.47;5064546;28;20505;-81
2021/12/12 09:00:00;;;;;;;0.40;0.30;;;;;;;2.13;96.23;101803.00;5063768;28;20481;-80
2021/12/12 09:02:27;;;;;;;0.40;0.30;;;;;;;2.19;96.14;101810.13;5062112;28;20442;-80
2021/12/12 09:04:57;;;;;;;0.40;0.30;;;;;;;2.20;95.85;101802.94;5062945;28;20442;-81
2021/12/12 09:07:29;;;;;;;0.40;0.30;;;;;;;2.16;96.07;101794.53;5063575;28;20855;-81
2021/12/12 09:10:02;;;;;;;0.73;0.73;;;;;;;2.20;95.57;101813.63;5063385;28;20470;-81
2021/12/12 09:12:35;;;;;;;0.40;0.30;;;;;;;2.19;95.36;101814.66;5064583;28;20443;-81
2021/12/12 09:15:10;;;;;;;0.40;0.30;;;;;;;2.17;95.46;101812.22;5064634;28;20892;-81
2021/12/12 09:17:42;;;;;;;0.40;0.20;;;;;;;2.21;95.44;101821.47;5063461;28;20435;-80
2021/12/12 09:20:15;;;;;;;0.50;0.30;;;;;;;2.21;95.21;101832.16;5064684;28;20466;-80
2021/12/12 09:22:49;;;;;;;0.40;0.27;;;;;;;2.23;95.26;101832.75;5062753;28;20423;-81
2021/12/12 09:25:24;;;;;;;0.40;0.30;;;;;;;2.26;95.84;101828.81;5060351;28;20446;-80
2021/12/12 09:28:03;;;;;;;1.17;1.17;;;;;;;2.26;95.60;101834.19;5063263;28;20477;-80
2021/12/12 09:30:32;;;;;;;0.40;0.30;;;;;;;2.32;95.74;101832.50;5064446;28;20511;-80
2021/12/12 09:33:01;;;;;;;0.40;0.30;;;;;;;2.34;95.61;101825.88;5064218;28;20530;-80
2021/12/12 09:35:34;;;;;;;0.40;0.30;;;;;;;2.36;95.93;101814.97;5062709;28;20801;-80
2021/12/12 09:38:04;;;;;;;0.40;0.30;;;;;;;2.41;96.21;101820.50;5063115;28;20912;-80
2021/12/12 09:40:50;;;;;;;0.40;0.30;;;;;;;2.49;95.87;101821.06;5059134;28;20470;-80
2021/12/12 09:43:30;;;;;;;0.50;0.40;;;;;;;2.48;95.84;101829.31;5060393;28;20938;-80
2021/12/12 09:46:07;;;;;;;0.40;0.20;;;;;;;2.47;94.61;101828.47;5059676;28;20426;-81
2021/12/12 09:52:01;;;;;;;0.40;0.20;;;;;;;2.51;94.50;101812.81;5058645;28;20456;-80
2021/12/12 09:54:36;;;;;;;0.40;0.30;;;;;;;2.49;94.44;101815.72;5060082;28;20427;-80
2021/12/12 09:57:22;;;;;;;3.30;2.37;;;;;;;2.51;94.22;101807.47;5059726;28;20911;-80
2021/12/12 10:00:02;;;;;;;0.40;0.30;;;;;;;2.49;95.04;101804.19;5060885;28;20458;-81
2021/12/12 10:02:38;;;;;;;0.40;0.20;;;;;;;2.46;94.81;101815.31;5059882;28;20433;-81
2021/12/12 10:05:14;;;;;;;0.40;0.30;;;;;;;2.57;94.94;101811.13;5060149;28;20426;-81
2021/12/12 10:07:51;;;;;;;1.43;1.33;;;;;;;2.55;94.61;101807.84;5060094;28;21021;-80
2021/12/12 10:10:26;;;;;;;0.50;0.40;;;;;;;2.63;95.01;101800.38;5058969;28;20482;-81
2021/12/12 10:12:59;;;;;;;0.40;0.20;;;;;;;2.65;94.57;101792.94;5059523;28;20437;-81
2021/12/12 10:15:28;;;;;;;0.97;0.97;;;;;;;2.70;94.83;101798.47;5059121;28;20434;-81
2021/12/12 10:18:01;;;;;;;0.40;0.23;;;;;;;2.79;95.22;101804.38;5060101;28;20826;-80
2021/12/12 10:20:33;;;;;;;0.40;0.30;;;;;;;2.82;95.61;101798.56;5060179;28;20467;-80
2021/12/12 10:23:10;;;;;;;0.40;0.30;;;;;;;2.83;95.74;101794.03;5060147;28;20427;-81
2021/12/12 10:25:42;;;;;;;0.40;0.27;;;;;;;2.87;95.81;101780.00;5058888;28;20429;-79
2021/12/12 10:28:15;;;;;;;0.40;0.30;;;;;;;2.96;95.80;101780.53;5035006;28;20476;-78
2021/12/12 10:30:49;;;;;;;0.40;0.20;;;;;;;3.03;95.56;101779.44;5035187;28;20432;-78
2021/12/12 10:33:20;;;;;;;4.00;3.80;;;;;;;3.07;95.54;101782.50;5037475;28;20475;-78
2021/12/12 10:35:48;;;;;;;0.40;0.20;;;;;;;3.08;95.32;101794.84;5055222;28;20811;-78
2021/12/12 10:38:20;;;;;;;0.50;0.40;;;;;;;3.11;95.04;101798.94;5054874;28;20963;-78
2021/12/12 10:40:51;;;;;;;0.40;0.20;;;;;;;3.17;94.72;101793.50;5055286;28;20458;-78
2021/12/12 10:43:25;;;;;;;0.40;0.20;;;;;;;3.20;94.58;101790.38;5054616;28;20442;-78
2021/12/12 10:45:59;;;;;;;0.40;0.30;;;;;;;3.21;94.57;101786.66;5054890;28;20791;-78
2021/12/12 10:48:33;;;;;;;0.40;0.30;;;;;;;3.23;94.64;101778.41;5054265;28;20841;-79
2021/12/12 10:51:04;;;;;;;1.03;1.03;;;;;;;3.22;93.93;101784.81;5055042;28;20498;-79
2021/12/12 10:53:36;;;;;;;2.70;2.10;;;;;;;3.25;94.08;101785.19;5055078;28;20435;-78
2021/12/12 10:56:09;;;;;;;0.40;0.30;;;;;;;3.29;94.30;101783.69;5054795;28;20907;-79
2021/12/12 10:58:40;;;;;;;10.97;10.03;;;;;;;3.32;94.31;101779.78;5056421;28;20470;-79
2021/12/12 11:01:11;;;;;;;0.40;0.30;;;;;;;3.33;94.38;101778.72;5056896;28;20434;-79
2021/12/12 11:03:45;;;;;;;0.70;0.70;;;;;;;3.41;94.53;101780.25;5057106;28;20430;-79
2021/12/12 11:06:16;;;;;;;0.50;0.43;;;;;;;3.40;94.61;101768.72;5056339;28;20742;-79
2021/12/12 11:08:53;;;;;;;0.40;0.30;;;;;;;3.44;94.27;101777.16;5056903;28;20516;-79
2021/12/12 11:11:22;;;;;;;1.00;0.60;;;;;;;3.45;94.37;101776.94;5056820;28;20461;-79
2021/12/12 11:13:52;;;;;;;0.40;0.30;;;;;;;3.45;93.95;101776.94;5056358;28;20831;-79
2021/12/12 11:16:22;;;;;;;0.40;0.30;;;;;;;3.45;93.83;101776.09;5056527;28;20446;-79
2021/12/12 11:18:56;;;;;;;0.87;0.87;;;;;;;3.45;94.18;101771.59;5056589;28;20826;-79
2021/12/12 11:21:27;;;;;;;0.40;0.30;;;;;;;3.47;94.32;101779.38;5056054;28;20438;-80
2021/12/12 11:23:57;;;;;;;0.40;0.20;;;;;;;3.51;94.50;101777.91;5056891;28;20434;-79
2021/12/12 11:26:34;;;;;;;0.40;0.30;;;;;;;3.55;95.12;101771.06;5056504;28;20430;-79
2021/12/12 11:29:06;;;;;;;0.40;0.30;;;;;;;3.54;94.95;101770.25;5057812;28;20481;-79
2021/12/12 11:31:37;;;;;;;0.40;0.30;;;;;;;3.55;94.66;101768.38;5057035;28;20434;-78
2021/12/12 11:34:07;;;;;;;0.40;0.30;;;;;;;3.54;95.17;101777.44;5055366;28;20438;-79
2021/12/12 11:36:45;;;;;;;0.40;0.20;;;;;;;3.56;95.54;101775.38;5054734;28;20521;-79
2021/12/12 11:39:18;;;;;;;0.40;0.30;;;;;;;3.58;95.63;101788.53;5037020;28;20562;-79
2021/12/12 11:41:56;;;;;;;0.40;0.20;;;;;;;3.56;96.15;101782.59;5036072;28;20444;-79
2021/12/12 11:44:31;;;;;;;3.13;2.93;;;;;;;3.58;96.38;101769.75;5043606;28;20431;-80
2021/12/12 11:47:07;;;;;;;0.77;0.77;;;;;;;3.51;96.21;101757.28;5043875;28;20407;-81
2021/12/12 11:49:47;;;;;;;0.40;0.20;;;;;;;3.52;96.52;101747.38;5038875;28;20795;-79
2021/12/12 11:52:20;;;;;;;0.40;0.30;;;;;;;3.50;96.34;101752.16;5036890;28;20439;-80
2021/12/12 11:54:55;;;;;;;2.10;2.00;;;;;;;3.50;96.90;101746.81;5042313;28;20431;-79
2021/12/12 11:57:26;;;;;;;0.40;0.30;;;;;;;3.52;97.12;101747.38;5035121;28;20482;-78
2021/12/12 12:00:00;;;;;;;0.40;0.30;;;;;;;3.46;97.65;101743.75;5039348;28;20502;-80
2021/12/12 12:02:33;;;;;;;0.40;0.30;;;;;;;3.47;97.58;101755.28;5038996;28;20435;-79
2021/12/12 12:05:14;;;;;;;0.40;0.30;;;;;;;3.47;98.05;101749.94;5041590;28;20459;-79
2021/12/12 12:07:50;;;;;;;0.40;0.30;;;;;;;3.49;98.37;101740.59;5040592;28;20506;-79